Time;durP1;ratioP1;P1;durP2;ratioP2;P2;SDS_P1;SDS_P2;PMS_P1;PMS_P2;Temp;Humidity;BMP_temperature;BMP_pressure;BME280_temperature;BME280_humidity;BME280_pressure;Samples;Min_cycle;Max_cycle;Signal;HPM_P1;HPM_P2
2021/01/23 00:01:59;;;;;;;22.30;12.48;;;;;;;4.82;70.86;98590.97;7893669;36;20299;-70
2021/01/23 00:07:02;;;;;;;30.95;14.18;;;;;;;4.88;70.96;98579.97;7900778;36;20555;-70
2021/01/23 00:12:06;;;;;;;28.97;15.97;;;;;;;4.86;70.60;98581.03;7902622;36;20153;-70
2021/01/23 00:17:09;;;;;;;29.20;15.00;;;;;;;4.79;70.56;98574.50;7902365;36;20716;-70
2021/01/23 00:22:12;;;;;;;28.50;15.30;;;;;;;4.68;70.67;98565.50;7901515;36;20384;-70
2021/01/23 00:27:15;;;;;;;23.13;13.93;;;;;;;4.60;70.69;98557.28;7895740;36;20224;-70
2021/01/23 00:32:18;;;;;;;26.63;13.47;;;;;;;4.50;71.19;98560.69;7874078;36;21117;-70
2021/01/23 00:37:21;;;;;;;23.13;13.87;;;;;;;4.50;71.01;98550.97;7854169;36;20994;-70
2021/01/23 00:42:23;;;;;;;21.60;13.05;;;;;;;4.59;71.20;98545.03;7894828;36;20570;-70
2021/01/23 00:47:27;;;;;;;25.52;13.32;;;;;;;4.53;71.51;98544.63;7897081;36;20539;-70
2021/01/23 00:52:30;;;;;;;27.60;14.13;;;;;;;4.60;71.37;98546.69;7878163;36;20174;-70
2021/01/23 00:57:34;;;;;;;26.77;13.60;;;;;;;4.71;71.35;98556.50;7899851;36;21099;-70
2021/01/23 01:02:41;;;;;;;23.30;14.23;;;;;;;4.80;71.61;98563.81;7884687;36;20549;-70
2021/01/23 01:07:53;;;;;;;24.35;13.35;;;;;;;4.84;71.34;98570.56;7880841;36;20153;-70
2021/01/23 01:12:56;;;;;;;23.95;12.23;;;;;;;4.89;71.29;98581.66;7901325;36;20546;-70
2021/01/23 01:17:59;;;;;;;29.13;13.30;;;;;;;4.92;71.45;98577.09;7878668;36;21062;-70
2021/01/23 01:23:02;;;;;;;28.43;14.33;;;;;;;4.68;70.78;98580.53;7901200;36;20558;-69
2021/01/23 01:28:05;;;;;;;27.45;15.80;;;;;;;4.48;71.40;98584.63;7900047;36;20519;-69
2021/01/23 01:33:09;;;;;;;27.43;14.30;;;;;;;4.40;71.42;98585.16;7885098;36;20580;-70
2021/01/23 01:38:13;;;;;;;29.07;14.17;;;;;;;4.26;71.72;98595.00;7898037;36;20459;-69
2021/01/23 01:43:16;;;;;;;32.63;14.87;;;;;;;4.20;71.92;98596.28;7900090;36;20480;-69
2021/01/23 01:48:19;;;;;;;25.27;14.20;;;;;;;4.16;72.34;98587.69;7900431;36;20184;-69
2021/01/23 01:53:22;;;;;;;30.40;14.97;;;;;;;4.19;72.29;98595.41;7900522;36;22040;-69
2021/01/23 01:58:25;;;;;;;30.60;15.10;;;;;;;4.19;72.04;98603.34;7903028;36;20467;-69
2021/01/23 02:03:56;;;;;;;25.40;14.30;;;;;;;4.19;72.44;98605.97;7896628;36;21993;-69
2021/01/23 02:09:07;;;;;;;25.00;14.10;;;;;;;4.18;72.53;98606.09;7898418;36;20822;-69
2021/01/23 02:14:30;;;;;;;25.83;14.73;;;;;;;4.17;72.56;98605.25;7896958;36;20517;-69
2021/01/23 02:20:04;;;;;;;25.47;13.53;;;;;;;3.92;72.87;98606.09;7898569;36;20616;-69
2021/01/23 02:25:11;;;;;;;34.47;16.10;;;;;;;3.85;74.05;98615.38;7875695;36;21369;-69
2021/01/23 02:30:18;;;;;;;21.87;11.33;;;;;;;3.97;74.28;98619.81;7877949;36;20719;-69
2021/01/23 02:35:24;;;;;;;32.97;14.60;;;;;;;4.17;74.23;98615.00;7901380;36;20723;-69
2021/01/23 02:40:27;;;;;;;33.33;15.63;;;;;;;4.24;73.47;98621.53;7903556;36;20260;-69
2021/01/23 02:45:29;;;;;;;26.47;14.30;;;;;;;4.26;73.56;98629.38;7900516;36;20150;-69
2021/01/23 02:50:35;;;;;;;29.27;14.57;;;;;;;4.35;73.39;98629.56;7899632;36;20464;-69
2021/01/23 02:55:42;;;;;;;32.83;15.13;;;;;;;4.43;73.40;98637.81;7899623;36;20189;-69
2021/01/23 03:00:47;;;;;;;31.57;14.47;;;;;;;4.44;73.09;98644.81;7879605;36;20189;-69
2021/01/23 03:05:51;;;;;;;33.40;14.97;;;;;;;4.49;73.07;98627.75;7886627;36;21760;-69
2021/01/23 03:10:54;;;;;;;32.37;14.33;;;;;;;4.56;73.08;98634.31;7865918;36;20489;-69
2021/01/23 03:15:56;;;;;;;31.23;14.02;;;;;;;4.62;72.70;98636.53;7894705;36;20174;-69
2021/01/23 03:21:00;;;;;;;29.63;14.03;;;;;;;4.58;72.64;98635.91;7872633;36;20465;-69
2021/01/23 03:26:02;;;;;;;33.90;14.20;;;;;;;4.62;72.60;98639.19;7847816;36;20194;-69
2021/01/23 03:31:05;;;;;;;26.73;12.43;;;;;;;4.62;72.70;98632.09;7853590;36;21076;-69
2021/01/23 03:36:09;;;;;;;31.10;14.07;;;;;;;4.66;72.42;98630.94;7852816;36;20711;-69
2021/01/23 03:41:12;;;;;;;24.63;12.67;;;;;;;4.61;72.62;98635.69;7850777;36;20512;-69
2021/01/23 03:46:16;;;;;;;29.63;14.00;;;;;;;4.58;72.40;98635.91;7822964;36;20194;-69
2021/01/23 03:51:19;;;;;;;25.80;12.57;;;;;;;4.57;72.61;98636.00;7854203;36;20198;-69
2021/01/23 03:56:22;;;;;;;28.17;14.10;;;;;;;4.63;72.68;98635.56;7858394;36;20488;-69
2021/01/23 04:01:25;;;;;;;25.60;12.30;;;;;;;4.68;72.17;98636.09;7853649;36;20503;-69
2021/01/23 04:06:28;;;;;;;29.00;13.00;;;;;;;4.73;72.33;98631.34;7853224;36;21140;-69
2021/01/23 04:11:31;;;;;;;22.33;11.53;;;;;;;4.75;72.12;98628.59;7852245;36;20253;-69
2021/01/23 04:16:33;;;;;;;26.63;12.43;;;;;;;4.64;72.17;98624.91;7853476;36;20601;-69
2021/01/23 04:21:37;;;;;;;25.53;11.43;;;;;;;4.70;72.08;98628.91;7832436;36;20563;-69
2021/01/23 04:26:39;;;;;;;20.00;11.90;;;;;;;4.76;72.00;98604.66;7854371;36;21038;-69
2021/01/23 04:31:42;;;;;;;25.03;12.07;;;;;;;4.82;71.81;98611.31;7854856;36;20457;-69
2021/01/23 04:36:45;;;;;;;25.55;10.60;;;;;;;4.80;71.61;98602.63;7854963;36;20255;-69
2021/01/23 04:41:48;;;;;;;23.90;10.90;;;;;;;4.75;71.74;98595.03;7853222;36;20610;-69
2021/01/23 04:46:50;;;;;;;27.07;10.77;;;;;;;4.80;71.55;98592.03;7851957;36;20610;-69
2021/01/23 04:51:54;;;;;;;23.25;10.60;;;;;;;4.90;71.11;98582.50;7854034;36;20478;-69
2021/01/23 04:56:57;;;;;;;22.43;10.97;;;;;;;4.97;71.14;98575.81;7855934;36;20549;-69
2021/01/23 05:02:19;;;;;;;21.70;10.90;;;;;;;4.92;71.08;98569.16;7839020;36;20510;-69
2021/01/23 05:07:32;;;;;;;23.10;10.47;;;;;;;4.92;71.20;98575.31;7839157;36;20498;-69
2021/01/23 05:12:37;;;;;;;24.47;10.20;;;;;;;4.88;70.94;98566.75;7853041;36;20578;-69
2021/01/23 05:17:50;;;;;;;22.63;9.82;;;;;;;4.82;71.49;98572.47;7850237;36;20483;-70
2021/01/23 05:22:54;;;;;;;28.27;10.97;;;;;;;4.68;71.73;98576.09;7850337;36;22080;-68
2021/01/23 05:27:57;;;;;;;22.67;10.73;;;;;;;4.63;71.71;98559.69;7851275;36;20506;-69
2021/01/23 05:33:06;;;;;;;18.70;9.15;;;;;;;4.60;71.68;98551.16;7855528;36;20147;-69
2021/01/23 05:38:21;;;;;;;24.20;10.63;;;;;;;4.49;72.04;98543.97;7854115;36;20166;-69
2021/01/23 05:43:33;;;;;;;24.43;10.70;;;;;;;4.43;72.10;98541.78;7816061;36;20479;-69
2021/01/23 05:48:39;;;;;;;17.03;8.73;;;;;;;4.47;72.02;98540.63;7864825;36;20503;-69
2021/01/23 05:53:43;;;;;;;22.93;10.90;;;;;;;4.54;71.97;98544.50;7856967;36;20571;-69
2021/01/23 05:58:46;;;;;;;22.67;8.97;;;;;;;4.57;71.59;98557.50;7856653;36;20447;-69
2021/01/23 06:03:52;;;;;;;19.83;9.63;;;;;;;4.64;71.90;98560.56;7871123;36;20174;-69
2021/01/23 06:08:55;;;;;;;21.52;9.50;;;;;;;4.65;71.20;98562.25;7875258;36;20189;-69
2021/01/23 06:13:57;;;;;;;19.27;9.10;;;;;;;4.66;70.93;98556.88;7874126;36;20298;-69
2021/01/23 06:19:01;;;;;;;24.20;11.10;;;;;;;4.59;71.31;98544.19;7865922;36;20580;-69
2021/01/23 06:24:05;;;;;;;19.87;8.40;;;;;;;4.52;71.37;98549.03;7862338;36;20494;-69
2021/01/23 06:29:08;;;;;;;24.15;10.15;;;;;;;4.41;71.16;98547.16;7860562;36;20480;-69
2021/01/23 06:34:27;;;;;;;14.83;8.40;;;;;;;4.22;71.53;98539.72;7861920;36;21859;-68
2021/01/23 06:39:33;;;;;;;25.10;10.47;;;;;;;4.16;71.98;98534.84;7870998;36;20497;-68
2021/01/23 06:44:35;;;;;;;20.13;8.83;;;;;;;4.14;72.31;98535.88;7873219;36;20198;-68
2021/01/23 06:49:41;;;;;;;22.43;10.57;;;;;;;4.27;71.99;98552.59;7874048;36;20459;-68
2021/01/23 06:54:46;;;;;;;23.73;10.03;;;;;;;4.28;71.74;98542.84;7863398;36;20728;-69
2021/01/23 06:59:49;;;;;;;21.80;9.93;;;;;;;4.22;71.72;98541.47;7873042;36;20520;-69
2021/01/23 07:04:51;;;;;;;20.00;8.97;;;;;;;4.17;71.75;98548.91;7871525;36;20142;-69
2021/01/23 07:09:58;;;;;;;23.63;10.10;;;;;;;4.14;71.98;98549.09;7872750;36;21110;-70
2021/01/23 07:15:01;;;;;;;20.27;9.37;;;;;;;4.19;72.06;98549.63;7871472;36;20432;-69
2021/01/23 07:20:07;;;;;;;19.10;9.07;;;;;;;4.13;72.08;98547.44;7873585;36;20241;-69
2021/01/23 07:25:14;;;;;;;21.40;10.43;;;;;;;4.13;71.96;98539.50;7876011;36;22032;-70
2021/01/23 07:30:18;;;;;;;15.67;7.27;;;;;;;4.09;72.06;98549.44;7876852;36;20979;-70
2021/01/23 07:35:20;;;;;;;25.17;9.93;;;;;;;4.12;71.75;98540.47;7876598;36;21635;-70
2021/01/23 07:40:27;;;;;;;23.63;10.97;;;;;;;4.08;71.92;98544.25;7851587;36;20521;-70
2021/01/23 07:45:30;;;;;;;22.50;10.40;;;;;;;4.06;71.72;98543.50;7851857;36;20504;-70
2021/01/23 07:50:38;;;;;;;24.80;9.67;;;;;;;4.18;71.51;98546.16;7875359;36;20254;-71
2021/01/23 07:55:42;;;;;;;28.07;12.50;;;;;;;4.17;71.45;98546.28;7875043;36;20200;-71
2021/01/23 08:00:46;;;;;;;29.43;13.20;;;;;;;4.21;71.68;98539.81;7855338;36;20538;-70
2021/01/23 08:05:50;;;;;;;22.73;12.27;;;;;;;4.20;71.54;98532.84;7876516;36;20435;-70
2021/01/23 08:10:53;;;;;;;28.97;12.97;;;;;;;4.21;71.35;98538.00;7878768;36;20532;-70
2021/01/23 08:16:18;;;;;;;25.03;12.43;;;;;;;4.31;71.44;98546.16;7811543;36;20292;-70
2021/01/23 08:21:41;;;;;;;23.30;11.60;;;;;;;4.62;71.20;98547.44;7798019;36;20501;-70
2021/01/23 08:27:17;;;;;;;26.23;13.23;;;;;;;4.92;70.29;98537.41;7873214;36;20495;-70
2021/01/23 08:32:23;;;;;;;24.37;11.70;;;;;;;4.95;70.28;98545.13;7854725;36;20457;-69
2021/01/23 08:37:51;;;;;;;25.63;11.60;;;;;;;4.98;69.47;98552.84;7871409;36;20223;-70
2021/01/23 08:43:15;;;;;;;12.57;5.40;;;;;;;5.06;70.01;98545.19;7840364;36;20159;-70
2021/01/23 08:48:26;;;;;;;46.43;17.23;;;;;;;5.62;69.47;98547.19;7843760;36;20462;-71
2021/01/23 08:53:36;;;;;;;27.40;12.80;;;;;;;5.92;68.08;98552.78;7871463;36;20650;-70
2021/01/23 08:59:00;;;;;;;18.30;8.93;;;;;;;6.26;66.02;98550.25;7854725;36;20883;-70
2021/01/23 09:04:21;;;;;;;11.88;5.47;;;;;;;6.12;64.15;98550.47;7873279;36;21125;-70
2021/01/23 09:09:35;;;;;;;10.23;5.38;;;;;;;5.96;64.78;98551.66;7881172;36;21019;-70
2021/01/23 09:14:39;;;;;;;13.63;6.18;;;;;;;6.44;63.31;98556.75;7895856;36;20671;-70
2021/01/23 09:19:53;;;;;;;14.20;5.93;;;;;;;6.40;63.64;98552.63;7904643;36;20474;-70
2021/01/23 09:24:59;;;;;;;12.18;6.13;;;;;;;6.43;64.04;98548.91;7892165;36;20450;-70
2021/01/23 09:30:10;;;;;;;9.75;5.43;;;;;;;6.65;63.68;98548.88;7887642;36;20497;-70
2021/01/23 09:35:33;;;;;;;11.75;6.15;;;;;;;6.38;65.43;98551.06;7754698;37;20362;-70
2021/01/23 09:40:39;;;;;;;10.50;5.25;;;;;;;5.91;70.46;98544.97;7758536;36;20656;-68
2021/01/23 09:45:50;;;;;;;12.35;6.13;;;;;;;5.90;71.83;98544.16;7848533;36;20484;-70
2021/01/23 09:50:53;;;;;;;11.35;5.65;;;;;;;6.05;71.84;98536.00;7906132;36;20996;-69
2021/01/23 09:55:59;;;;;;;14.88;7.20;;;;;;;6.35;71.32;98535.41;7915730;36;20146;-69
2021/01/23 10:01:26;;;;;;;12.93;6.18;;;;;;;6.40;70.33;98543.84;7864238;36;20443;-69
2021/01/23 10:06:37;;;;;;;12.82;6.45;;;;;;;6.68;69.78;98540.66;7904948;36;21105;-69
2021/01/23 10:11:39;;;;;;;18.15;7.13;;;;;;;6.85;69.07;98538.47;7892270;36;20204;-69
2021/01/23 10:16:42;;;;;;;12.80;6.47;;;;;;;6.75;68.63;98540.19;7880794;36;20238;-69
2021/01/23 10:21:45;;;;;;;12.05;6.47;;;;;;;6.69;68.02;98533.53;7865072;36;20537;-69
2021/01/23 10:26:48;;;;;;;10.32;5.53;;;;;;;7.02;67.29;98527.34;7851113;36;20163;-70
2021/01/23 10:31:51;;;;;;;8.68;5.22;;;;;;;7.43;65.41;98527.53;7843010;36;20884;-69
2021/01/23 10:36:54;;;;;;;10.25;5.20;;;;;;;7.18;65.32;98528.72;7828109;36;20190;-70
2021/01/23 10:41:56;;;;;;;8.90;5.80;;;;;;;7.49;64.27;98525.22;7847996;36;20461;-70
2021/01/23 10:46:59;;;;;;;10.45;5.38;;;;;;;7.75;63.37;98516.84;7848030;36;20166;-69
2021/01/23 10:52:02;;;;;;;8.98;5.50;;;;;;;8.13;62.66;98518.06;7854397;36;20461;-70
2021/01/23 10:57:06;;;;;;;11.00;5.78;;;;;;;8.30;61.34;98517.41;7853726;36;20206;-70
2021/01/23 11:02:09;;;;;;;9.73;5.38;;;;;;;9.20;59.92;98516.56;7850133;36;21027;-70
2021/01/23 11:07:12;;;;;;;9.82;5.32;;;;;;;9.75;57.49;98511.47;7849862;36;20501;-69
2021/01/23 11:12:14;;;;;;;6.50;3.17;;;;;;;8.52;59.99;98505.78;7850354;36;20476;-70
2021/01/23 11:17:19;;;;;;;9.48;5.82;;;;;;;8.10;61.73;98503.19;7852381;36;20707;-69
2021/01/23 11:22:21;;;;;;;8.50;5.05;;;;;;;7.61;62.86;98490.63;7883365;36;21867;-69
2021/01/23 11:27:24;;;;;;;7.60;4.85;;;;;;;7.63;63.12;98486.03;7869425;36;20225;-72
2021/01/23 11:32:28;;;;;;;12.27;5.68;;;;;;;7.59;63.93;98474.78;7864862;36;20153;-70
2021/01/23 11:37:31;;;;;;;9.55;4.97;;;;;;;7.27;64.62;98477.53;7860514;36;20650;-69
2021/01/23 11:42:33;;;;;;;8.60;4.72;;;;;;;7.59;63.75;98464.16;7864870;36;20469;-69
2021/01/23 11:47:37;;;;;;;7.18;4.68;;;;;;;7.47;64.45;98462.56;7867081;36;21715;-69
2021/01/23 11:52:39;;;;;;;10.00;5.25;;;;;;;7.85;63.43;98442.50;7898368;36;20211;-69
2021/01/23 11:57:42;;;;;;;9.57;4.82;;;;;;;7.95;63.25;98438.91;7897044;36;21014;-69
2021/01/23 12:02:45;;;;;;;6.65;4.40;;;;;;;7.71;63.28;98438.38;7894820;36;20511;-69
2021/01/23 12:07:48;;;;;;;8.13;4.47;;;;;;;7.48;64.16;98430.53;7894639;36;20461;-69
2021/01/23 12:12:50;;;;;;;7.00;4.35;;;;;;;7.78;63.42;98427.03;7893552;36;20180;-70
2021/01/23 12:17:54;;;;;;;7.47;4.63;;;;;;;9.18;60.59;98424.44;7851353;36;20510;-69
2021/01/23 12:22:56;;;;;;;5.88;3.75;;;;;;;10.13;57.28;98424.31;7849324;36;20701;-70
2021/01/23 12:27:59;;;;;;;4.53;3.67;;;;;;;9.87;58.01;98413.47;7814770;36;20458;-69
2021/01/23 12:33:02;;;;;;;4.43;3.13;;;;;;;8.84;59.40;98414.22;7920009;36;21349;-69
2021/01/23 12:38:05;;;;;;;4.65;4.15;;;;;;;8.89;59.96;98403.97;8091868;36;20347;-70
2021/01/23 12:43:07;;;;;;;8.00;4.35;;;;;;;8.56;60.87;98395.41;8092554;36;20240;-68
2021/01/23 12:48:11;;;;;;;9.30;4.45;;;;;;;10.72;55.97;98386.63;8093517;36;20248;-71
2021/01/23 12:53:16;;;;;;;5.38;3.75;;;;;;;10.74;54.18;98380.13;8092536;36;20353;-68
2021/01/23 12:58:21;;;;;;;8.27;4.22;;;;;;;10.54;55.09;98373.25;8092686;36;20241;-70
2021/01/23 13:03:24;;;;;;;5.13;3.67;;;;;;;9.93;57.03;98380.06;8092073;36;20237;-72
2021/01/23 13:08:27;;;;;;;7.97;3.90;;;;;;;9.08;58.88;98365.84;8091785;36;21587;-68
2021/01/23 13:13:29;;;;;;;6.90;4.03;;;;;;;9.30;58.42;98370.84;8099715;36;20229;-70
2021/01/23 13:18:35;;;;;;;7.43;4.38;;;;;;;9.35;58.99;98363.28;8095758;36;20387;-70
2021/01/23 13:23:38;;;;;;;8.50;4.18;;;;;;;9.96;56.50;98353.09;8070932;36;20240;-68
2021/01/23 13:28:40;;;;;;;8.18;4.97;;;;;;;9.71;57.67;98355.44;8091445;36;20735;-68
2021/01/23 13:33:43;;;;;;;9.45;4.05;;;;;;;9.68;57.14;98352.19;8091664;36;20788;-69
2021/01/23 13:38:46;;;;;;;5.90;4.28;;;;;;;9.79;57.22;98341.38;8070189;36;20244;-69
2021/01/23 13:43:48;;;;;;;7.70;4.60;;;;;;;9.67;58.00;98350.53;8091491;36;20320;-69
2021/01/23 13:48:51;;;;;;;10.15;5.35;;;;;;;9.02;58.46;98345.94;8091045;36;20233;-70
2021/01/23 13:53:54;;;;;;;8.35;4.80;;;;;;;8.81;60.03;98350.59;8155939;35;20270;-69
2021/01/23 13:58:56;;;;;;;10.27;6.10;;;;;;;9.02;60.74;98343.28;8189733;35;20232;-69
2021/01/23 14:04:00;;;;;;;7.35;4.93;;;;;;;9.11;58.35;98347.75;8191566;35;20254;-68
2021/01/23 14:09:04;;;;;;;9.70;5.60;;;;;;;8.73;59.13;98356.63;8191192;35;21499;-68
2021/01/23 14:14:06;;;;;;;9.27;5.45;;;;;;;8.52;60.20;98361.22;8171156;35;20278;-68
2021/01/23 14:19:09;;;;;;;11.32;5.45;;;;;;;8.32;60.64;98361.16;8169978;35;20750;-69
2021/01/23 14:24:11;;;;;;;9.27;5.82;;;;;;;8.18;61.04;98354.41;8107916;36;20285;-69
2021/01/23 14:29:14;;;;;;;10.35;5.97;;;;;;;8.36;61.03;98351.09;8094663;36;20245;-68
2021/01/23 14:34:17;;;;;;;7.53;4.57;;;;;;;8.23;61.46;98360.19;8125045;36;21220;-68
2021/01/23 14:39:19;;;;;;;8.05;5.43;;;;;;;8.49;61.20;98358.84;8144478;36;20245;-69
2021/01/23 14:44:22;;;;;;;9.73;6.18;;;;;;;8.63;60.83;98347.78;8140581;36;20267;-69
2021/01/23 14:49:25;;;;;;;8.73;5.53;;;;;;;8.71;60.57;98355.06;8117570;36;20236;-68
2021/01/23 14:54:27;;;;;;;8.65;5.50;;;;;;;8.45;61.04;98353.81;8117677;36;20658;-69
2021/01/23 14:59:33;;;;;;;7.35;5.45;;;;;;;8.34;61.72;98353.91;8099694;36;20236;-71
2021/01/23 15:04:37;;;;;;;7.25;5.35;;;;;;;8.12;62.62;98335.53;8121013;36;20261;-69
2021/01/23 15:09:39;;;;;;;8.43;5.57;;;;;;;8.04;62.94;98346.00;8118078;36;20228;-70
2021/01/23 15:14:42;;;;;;;8.98;5.57;;;;;;;7.94;63.48;98351.28;8119169;36;20240;-70
2021/01/23 15:19:45;;;;;;;9.13;6.00;;;;;;;7.82;63.54;98349.72;8095046;36;20233;-68
2021/01/23 15:24:47;;;;;;;11.52;5.70;;;;;;;7.77;63.83;98347.47;8095149;36;20324;-68
2021/01/23 15:29:49;;;;;;;8.65;5.85;;;;;;;7.68;63.92;98349.09;8119067;36;20323;-69
2021/01/23 15:34:53;;;;;;;8.13;5.70;;;;;;;7.65;64.00;98356.47;8117125;36;20317;-70
2021/01/23 15:39:55;;;;;;;10.48;5.68;;;;;;;7.62;64.17;98349.63;8132177;36;20323;-69
2021/01/23 15:44:57;;;;;;;9.80;5.47;;;;;;;7.60;64.20;98345.41;8107274;36;20233;-69
2021/01/23 15:50:01;;;;;;;8.57;5.40;;;;;;;7.60;64.08;98353.38;8107937;36;20229;-69
2021/01/23 15:55:07;;;;;;;10.15;6.00;;;;;;;7.50;64.02;98348.03;8129580;36;20699;-68
2021/01/23 16:00:11;;;;;;;12.63;5.75;;;;;;;7.43;63.94;98353.06;8122007;36;20248;-69
2021/01/23 16:05:15;;;;;;;9.43;5.73;;;;;;;7.41;64.40;98351.50;8142495;36;20250;-70
2021/01/23 16:10:18;;;;;;;15.48;7.30;;;;;;;7.40;64.51;98355.13;8143408;36;20244;-70
2021/01/23 16:15:20;;;;;;;13.70;7.37;;;;;;;7.39;64.81;98356.94;8142169;36;20241;-69
2021/01/23 16:20:23;;;;;;;15.25;8.95;;;;;;;7.37;64.89;98358.88;8159157;35;21490;-69
2021/01/23 16:25:28;;;;;;;16.52;9.07;;;;;;;7.37;64.89;98352.72;8192307;35;20285;-70
2021/01/23 16:30:31;;;;;;;12.73;7.47;;;;;;;7.31;65.05;98360.25;8190683;35;20804;-70
2021/01/23 16:35:40;;;;;;;10.50;6.78;;;;;;;7.31;65.09;98357.59;8192164;35;21026;-70
2021/01/23 16:40:43;;;;;;;12.27;6.50;;;;;;;7.31;65.02;98352.28;8192913;35;20228;-70
2021/01/23 16:45:45;;;;;;;8.95;6.03;;;;;;;7.29;64.90;98348.91;8192245;35;20235;-69
2021/01/23 16:50:49;;;;;;;12.48;6.82;;;;;;;7.26;64.83;98351.81;8192321;35;20239;-70
2021/01/23 16:55:51;;;;;;;16.27;7.50;;;;;;;7.22;64.78;98350.41;8170745;35;20773;-70
2021/01/23 17:00:54;;;;;;;10.25;7.22;;;;;;;7.24;64.70;98353.78;8183805;35;20268;-70
2021/01/23 17:05:58;;;;;;;10.83;6.67;;;;;;;7.24;64.50;98350.25;8096926;36;21480;-70
2021/01/23 17:11:00;;;;;;;13.68;7.03;;;;;;;7.20;64.36;98354.16;8141666;36;20233;-70
2021/01/23 17:16:03;;;;;;;8.50;5.40;;;;;;;7.12;64.15;98339.72;8141219;36;20343;-70
2021/01/23 17:21:06;;;;;;;9.85;6.13;;;;;;;7.10;64.05;98339.03;8141109;36;20643;-69
2021/01/23 17:26:08;;;;;;;10.35;6.03;;;;;;;7.05;63.70;98333.28;8103219;36;20750;-69
2021/01/23 17:31:11;;;;;;;15.25;7.10;;;;;;;7.00;63.23;98326.66;8098861;36;21123;-69
2021/01/23 17:36:14;;;;;;;15.30;7.43;;;;;;;6.97;63.25;98319.81;8103470;36;20233;-69
2021/01/23 17:41:17;;;;;;;13.23;8.20;;;;;;;7.01;63.32;98321.22;8140694;36;20327;-70
2021/01/23 17:46:19;;;;;;;18.70;9.40;;;;;;;7.07;63.20;98323.34;8140150;36;20224;-69
2021/01/23 17:51:23;;;;;;;17.57;10.57;;;;;;;7.11;63.01;98324.78;8140886;36;20232;-70
2021/01/23 17:56:29;;;;;;;15.63;9.43;;;;;;;7.09;63.44;98325.88;8140052;36;20267;-69
2021/01/23 18:01:31;;;;;;;12.57;7.87;;;;;;;6.98;63.92;98318.81;8142882;36;20244;-70
2021/01/23 18:06:35;;;;;;;13.88;8.70;;;;;;;6.93;64.47;98321.03;8145523;36;20390;-69
2021/01/23 18:11:43;;;;;;;16.90;8.97;;;;;;;6.89;64.81;98328.41;8118510;36;20854;-69
2021/01/23 18:16:45;;;;;;;14.95;8.73;;;;;;;6.87;65.08;98322.38;8144626;36;20322;-70
2021/01/23 18:21:49;;;;;;;16.63;9.67;;;;;;;6.87;65.59;98317.06;8144822;36;21952;-70
2021/01/23 18:26:52;;;;;;;18.47;9.97;;;;;;;6.89;65.66;98316.94;8122741;36;20240;-70
2021/01/23 18:31:54;;;;;;;26.25;11.88;;;;;;;6.90;65.60;98313.31;8130551;36;20244;-70
2021/01/23 18:37:01;;;;;;;21.35;11.75;;;;;;;6.94;65.44;98313.88;8133739;36;20852;-70
2021/01/23 18:42:04;;;;;;;22.60;12.90;;;;;;;6.94;65.54;98316.53;8145042;36;20268;-71
2021/01/23 18:47:09;;;;;;;21.80;10.43;;;;;;;6.87;65.61;98317.06;8123279;36;20305;-71
2021/01/23 18:52:14;;;;;;;15.87;9.40;;;;;;;6.88;65.59;98304.63;8143361;36;21693;-71
2021/01/23 18:57:17;;;;;;;18.67;9.17;;;;;;;6.88;65.62;98304.63;8142259;36;20244;-69
2021/01/23 19:02:20;;;;;;;14.87;9.37;;;;;;;6.85;65.65;98294.28;8121686;36;20644;-70
2021/01/23 19:07:23;;;;;;;18.53;10.53;;;;;;;6.85;65.82;98288.97;8132212;36;20236;-70
2021/01/23 19:12:27;;;;;;;17.23;10.43;;;;;;;6.81;66.02;98291.06;8098189;36;20263;-69
2021/01/23 19:17:29;;;;;;;20.23;11.23;;;;;;;6.73;66.25;98290.03;8130565;36;20810;-71
2021/01/23 19:22:32;;;;;;;19.70;10.20;;;;;;;6.71;66.61;98291.97;8143437;36;20335;-70
2021/01/23 19:27:35;;;;;;;21.30;11.20;;;;;;;6.61;67.14;98289.22;8092067;36;20737;-70
2021/01/23 19:32:41;;;;;;;31.10;17.67;;;;;;;6.53;67.66;98297.84;8090894;36;20248;-70
2021/01/23 19:37:45;;;;;;;25.48;14.27;;;;;;;6.46;68.09;98275.44;8093683;36;20236;-70
2021/01/23 19:42:47;;;;;;;22.17;12.40;;;;;;;6.41;68.44;98297.03;8093226;36;20698;-71
2021/01/23 19:48:00;;;;;;;24.63;12.70;;;;;;;6.37;68.55;98289.47;8093202;36;20241;-70
2021/01/23 19:53:04;;;;;;;23.20;11.30;;;;;;;6.34;68.59;98290.56;8093063;36;20244;-70
2021/01/23 19:58:06;;;;;;;22.80;12.23;;;;;;;6.21;68.67;98277.47;8093314;36;20265;-70
2021/01/23 20:03:09;;;;;;;23.67;13.13;;;;;;;6.24;68.67;98279.03;8092900;36;20988;-70
2021/01/23 20:08:13;;;;;;;27.00;15.37;;;;;;;6.28;68.62;98279.63;8092656;36;20269;-70
2021/01/23 20:13:15;;;;;;;20.85;11.65;;;;;;;6.21;68.71;98269.53;8071975;36;20245;-70
2021/01/23 20:18:18;;;;;;;22.33;12.23;;;;;;;6.14;68.81;98262.19;8092500;36;20249;-70
2021/01/23 20:23:21;;;;;;;20.87;11.43;;;;;;;6.04;69.18;98248.03;8092237;36;20751;-70
2021/01/23 20:28:23;;;;;;;20.60;10.97;;;;;;;6.01;69.21;98257.09;8092089;36;20244;-70
2021/01/23 20:33:26;;;;;;;21.60;11.10;;;;;;;5.97;69.43;98251.16;8092378;36;20229;-69
2021/01/23 20:38:29;;;;;;;25.53;14.43;;;;;;;5.88;69.58;98251.06;8071202;36;20295;-70
2021/01/23 20:43:31;;;;;;;23.37;13.70;;;;;;;5.84;69.67;98258.44;8071024;36;20249;-70
2021/01/23 20:48:35;;;;;;;23.67;12.90;;;;;;;5.85;69.94;98253.97;8051604;36;21583;-70
2021/01/23 20:53:38;;;;;;;25.90;13.87;;;;;;;5.78;69.86;98251.78;8092149;36;20240;-70
2021/01/23 20:58:40;;;;;;;29.67;13.20;;;;;;;5.74;70.08;98245.06;8092589;36;20306;-70
2021/01/23 21:03:43;;;;;;;26.75;12.25;;;;;;;5.75;70.47;98244.09;7918567;36;21157;-70
2021/01/23 21:08:46;;;;;;;26.57;11.30;;;;;;;5.79;70.26;98242.91;7865780;36;20648;-70
2021/01/23 21:13:48;;;;;;;23.17;11.35;;;;;;;5.78;70.15;98235.88;7885938;36;20660;-70
2021/01/23 21:18:51;;;;;;;20.48;10.55;;;;;;;5.77;70.27;98230.72;7898210;36;20199;-71
2021/01/23 21:23:55;;;;;;;21.35;10.80;;;;;;;5.79;70.46;98228.81;7858479;36;20945;-70
2021/01/23 21:28:57;;;;;;;17.83;10.10;;;;;;;5.72;70.59;98220.50;7876072;36;20808;-70
2021/01/23 21:34:00;;;;;;;51.45;22.40;;;;;;;5.66;70.89;98209.56;7896437;36;20176;-70
2021/01/23 21:39:04;;;;;;;48.80;21.83;;;;;;;5.60;70.79;98212.72;7894271;36;20451;-70
2021/01/23 21:44:06;;;;;;;36.05;15.27;;;;;;;5.55;71.17;98198.03;7895826;36;20179;-70
2021/01/23 21:49:09;;;;;;;31.30;13.82;;;;;;;5.49;71.66;98211.78;7893381;36;20438;-69
2021/01/23 21:54:12;;;;;;;25.58;14.75;;;;;;;5.46;71.48;98214.69;7895401;36;20146;-70
2021/01/23 21:59:14;;;;;;;28.48;12.02;;;;;;;5.50;71.70;98225.84;7852721;36;20193;-69
2021/01/23 22:04:17;;;;;;;28.63;13.77;;;;;;;5.53;71.75;98204.41;7870262;36;20538;-70
2021/01/23 22:09:20;;;;;;;27.57;14.27;;;;;;;5.56;71.65;98217.41;7881026;36;20440;-70
2021/01/23 22:14:22;;;;;;;27.93;13.93;;;;;;;5.66;71.34;98221.00;7893039;36;20193;-70
2021/01/23 22:19:25;;;;;;;29.07;13.43;;;;;;;5.68;71.67;98215.59;7893158;36;20492;-70
2021/01/23 22:24:28;;;;;;;26.80;12.10;;;;;;;5.73;71.32;98221.34;7892888;36;20629;-70
2021/01/23 22:29:30;;;;;;;23.95;12.13;;;;;;;5.74;71.06;98212.44;7893240;36;20465;-71
2021/01/23 22:34:32;;;;;;;25.83;12.70;;;;;;;5.73;71.35;98214.25;7893234;36;20196;-70
2021/01/23 22:39:36;;;;;;;23.37;12.47;;;;;;;5.76;71.28;98210.53;7891978;36;20509;-70
2021/01/23 22:44:38;;;;;;;21.30;11.52;;;;;;;5.80;71.18;98209.28;7890314;36;20456;-70
2021/01/23 22:49:40;;;;;;;25.40;12.40;;;;;;;5.83;71.21;98198.44;7893648;36;20181;-70
2021/01/23 22:54:45;;;;;;;25.90;13.23;;;;;;;5.88;70.99;98200.72;7858001;36;20566;-70
2021/01/23 22:59:47;;;;;;;25.30;11.53;;;;;;;5.82;71.50;98193.28;7857473;36;20453;-70
2021/01/23 23:04:49;;;;;;;20.40;11.02;;;;;;;5.80;71.44;98201.34;7870914;36;20257;-70
2021/01/23 23:09:52;;;;;;;20.40;11.70;;;;;;;5.84;71.44;98207.22;7895665;36;21335;-70
2021/01/23 23:14:55;;;;;;;24.58;11.63;;;;;;;5.88;71.30;98204.19;7892187;36;20461;-70
2021/01/23 23:19:57;;;;;;;24.43;11.87;;;;;;;5.90;71.27;98198.78;7869285;36;20544;-70
2021/01/23 23:25:01;;;;;;;20.53;10.33;;;;;;;5.96;70.95;98198.31;7878589;36;20519;-70
2021/01/23 23:30:08;;;;;;;21.20;10.48;;;;;;;5.95;70.93;98205.41;7874226;36;20201;-70
2021/01/23 23:35:14;;;;;;;25.25;10.23;;;;;;;6.01;70.88;98193.47;7857829;36;20502;-70
2021/01/23 23:40:18;;;;;;;20.67;10.63;;;;;;;6.01;70.84;98199.59;7883934;36;20930;-70
2021/01/23 23:45:21;;;;;;;19.63;10.52;;;;;;;6.00;70.47;98197.06;7892345;36;20434;-70
2021/01/23 23:50:24;;;;;;;20.90;10.27;;;;;;;6.03;70.69;98194.16;7892380;36;20199;-70